KDNL

Daniel Field Airport

Augusta, Georgia, USA
KDNL 201720Z 2018/2118 08008KT P6SM SKC FM210000 VRB05KT P6SM SKC FM211400 10010KT P6SM SKC
Issued Valid From Valid To
Apr-20 @ 17:20 UTC
(an hour ago)
Apr-20 @ 18:00 UTC
(36 minutes ago)
Apr-21 @ 18:00 UTC
(in 23 hours)
Apr-20 @ 18:00 to Apr-21 @ 00:00
KDNL 201720Z 2018/2118 08008KT P6SM SKC
Wind Visibility Clouds
80° at 8 knots Greater than 6 miles
  • Clear skies
From Apr-21 @ 00:00 to Apr-21 @ 14:00
FM210000 VRB05KT P6SM SKC
Wind Visibility Clouds
Variable at 5 knots Greater than 6 miles
  • Clear skies
From Apr-21 @ 14:00 to Apr-21 @ 18:00
FM211400 10010KT P6SM SKC
Wind Visibility Clouds
100° at 10 knots Greater than 6 miles
  • Clear skies
KDNL 201720Z 2018/2118 08008KT P6SM SKC FM210000 VRB05KT P6SM SKC FM211400 10010KT P6SM SKC
Issued Apr-20 @ 17:20 UTC
(an hour ago)
Valid From Apr-20 @ 18:00 UTC
(36 minutes ago)
Valid To Apr-21 @ 18:00 UTC
(in 23 hours)
Apr-20 @ 18:00 - Apr-21 @ 00:00
Wind Visibility
80° at 8 knots Greater than 6 miles
Clouds
  • Clear skies
From Apr-21 @ 00:00 - Apr-21 @ 14:00
Wind Visibility
Variable at 5 knots Greater than 6 miles
Clouds
  • Clear skies
From Apr-21 @ 14:00 - Apr-21 @ 18:00
Wind Visibility
100° at 10 knots Greater than 6 miles
Clouds
  • Clear skies